Time;durP1;ratioP1;P1;durP2;ratioP2;P2;SDS_P1;SDS_P2;PMS_P1;PMS_P2;Temp;Humidity;BMP_temperature;BMP_pressure;BME280_temperature;BME280_humidity;BME280_pressure;Samples;Min_cycle;Max_cycle;Signal;HPM_P1;HPM_P2
2023/03/14 00:01:14;;;;;;;1.10;0.90;;;11.10;98.00;;;;;;5053736;28;20460;-66
2023/03/14 00:03:43;;;;;;;1.20;1.00;;;11.00;98.00;;;;;;5053599;28;20458;-66
2023/03/14 00:06:11;;;;;;;1.53;1.20;;;11.10;98.00;;;;;;5053778;28;20955;-66
2023/03/14 00:08:40;;;;;;;1.20;1.10;;;11.00;98.00;;;;;;5053505;28;20516;-66
2023/03/14 00:11:09;;;;;;;1.17;1.10;;;11.00;98.00;;;;;;5053391;28;20464;-66
2023/03/14 00:13:36;;;;;;;1.20;0.90;;;11.00;98.00;;;;;;5053292;28;20467;-66
2023/03/14 00:16:05;;;;;;;1.30;1.00;;;11.00;98.00;;;;;;5053548;28;20567;-66
2023/03/14 00:18:34;;;;;;;1.40;1.10;;;11.10;98.00;;;;;;5053371;28;20465;-66
2023/03/14 00:21:02;;;;;;;1.10;0.90;;;11.10;98.00;;;;;;5053380;28;20457;-66
2023/03/14 00:23:29;;;;;;;1.10;0.90;;;11.10;98.00;;;;;;5053241;28;20463;-66
2023/03/14 00:26:03;;;;;;;1.60;1.13;;;11.10;98.00;;;;;;5053253;28;20464;-65
2023/03/14 00:28:30;;;;;;;1.93;1.20;;;11.10;98.00;;;;;;5053040;28;20462;-66
2023/03/14 00:30:57;;;;;;;1.10;0.90;;;11.10;98.00;;;;;;5053386;28;20849;-66
2023/03/14 00:33:24;;;;;;;1.70;1.13;;;11.10;98.00;;;;;;5053106;28;20473;-66
2023/03/14 00:35:57;;;;;;;1.90;1.20;;;11.20;98.00;;;;;;5053372;28;20892;-66
2023/03/14 00:38:25;;;;;;;1.40;1.10;;;11.10;98.00;;;;;;5052828;28;20465;-66
2023/03/14 00:40:53;;;;;;;1.20;1.00;;;11.20;98.00;;;;;;5052847;28;20531;-66
2023/03/14 00:43:21;;;;;;;2.40;1.00;;;11.10;98.00;;;;;;5052647;28;20984;-66
2023/03/14 00:45:48;;;;;;;1.20;1.10;;;11.10;98.00;;;;;;5050919;28;20552;-66
2023/03/14 00:48:15;;;;;;;1.57;1.03;;;11.10;98.00;;;;;;5052842;28;20467;-66
2023/03/14 00:50:43;;;;;;;1.10;1.00;;;11.30;98.00;;;;;;5052964;28;20475;-66
2023/03/14 00:53:11;;;;;;;1.20;1.00;;;11.30;98.00;;;;;;5035128;28;20790;-66
2023/03/14 00:55:39;;;;;;;1.20;0.97;;;11.20;98.00;;;;;;5051766;28;20482;-66
2023/03/14 00:58:06;;;;;;;1.20;1.07;;;11.30;98.00;;;;;;5052639;28;20453;-66
2023/03/14 01:00:36;;;;;;;1.30;1.00;;;11.40;98.00;;;;;;5052297;28;20530;-66
2023/03/14 01:03:03;;;;;;;1.20;1.00;;;11.40;98.00;;;;;;5035129;28;20962;-66
2023/03/14 01:05:31;;;;;;;1.50;1.00;;;11.40;98.00;;;;;;5052667;28;20451;-66
2023/03/14 01:07:58;;;;;;;1.40;0.97;;;11.40;98.00;;;;;;5052270;28;20524;-66
2023/03/14 01:10:27;;;;;;;1.20;0.90;;;11.40;98.00;;;;;;5052461;28;20462;-66
2023/03/14 01:12:54;;;;;;;1.20;1.00;;;11.40;98.00;;;;;;5052361;28;20509;-66
2023/03/14 01:15:21;;;;;;;1.20;1.00;;;11.40;98.00;;;;;;5052123;28;20972;-66
2023/03/14 01:17:49;;;;;;;1.20;1.00;;;11.40;98.00;;;;;;5052309;28;20472;-66
2023/03/14 01:20:17;;;;;;;1.50;1.10;;;11.30;98.00;;;;;;5034582;28;20459;-65
2023/03/14 01:22:45;;;;;;;1.20;1.03;;;11.30;98.00;;;;;;5052473;28;20460;-66
2023/03/14 01:25:14;;;;;;;1.87;1.00;;;11.20;98.00;;;;;;5052345;28;20485;-66
2023/03/14 01:27:43;;;;;;;1.20;1.00;;;11.30;98.00;;;;;;5052354;28;20466;-66
2023/03/14 01:30:12;;;;;;;1.20;1.00;;;11.20;98.00;;;;;;5052439;28;20462;-66
2023/03/14 01:32:40;;;;;;;1.20;1.00;;;11.20;98.00;;;;;;5052260;28;20860;-66
2023/03/14 01:35:08;;;;;;;1.60;1.20;;;11.20;98.00;;;;;;5052129;28;20897;-66
2023/03/14 01:37:35;;;;;;;1.73;1.10;;;11.10;98.00;;;;;;5051965;28;20956;-66
2023/03/14 01:40:03;;;;;;;1.20;0.90;;;11.10;98.00;;;;;;5051922;28;20458;-66
2023/03/14 01:42:30;;;;;;;1.30;1.00;;;11.10;98.00;;;;;;5034353;28;20484;-66
2023/03/14 01:45:22;;;;;;;1.60;1.10;;;11.10;98.00;;;;;;5034353;28;20462;-66
2023/03/14 01:47:50;;;;;;;1.30;1.00;;;11.00;98.00;;;;;;5051043;28;20464;-66
2023/03/14 01:50:17;;;;;;;1.40;1.10;;;11.10;98.00;;;;;;5051966;28;20949;-66
2023/03/14 01:52:47;;;;;;;1.10;0.90;;;11.00;98.00;;;;;;5051732;28;20515;-66
2023/03/14 01:55:18;;;;;;;1.40;1.10;;;11.00;98.00;;;;;;5051567;28;20484;-66
2023/03/14 01:57:48;;;;;;;1.30;1.00;;;11.00;98.00;;;;;;5051457;28;20857;-66
2023/03/14 02:00:21;;;;;;;1.20;1.00;;;11.00;98.00;;;;;;5051535;28;20557;-66
2023/03/14 02:02:51;;;;;;;1.20;1.00;;;11.00;98.00;;;;;;5051758;28;20872;-66
2023/03/14 02:05:21;;;;;;;1.20;1.00;;;11.00;98.00;;;;;;5051538;28;20984;-66
2023/03/14 02:07:51;;;;;;;1.47;1.10;;;11.10;98.00;;;;;;5055613;28;20453;-66
2023/03/14 02:10:21;;;;;;;1.40;1.00;;;11.20;98.00;;;;;;5055733;28;20464;-66
2023/03/14 02:12:49;;;;;;;1.83;1.27;;;11.10;98.00;;;;;;5055717;28;20458;-66
2023/03/14 02:15:19;;;;;;;1.30;1.00;;;11.10;98.00;;;;;;5055493;28;20478;-66
2023/03/14 02:17:47;;;;;;;1.20;1.00;;;11.10;98.00;;;;;;5055563;28;20466;-66
2023/03/14 02:20:28;;;;;;;1.20;0.90;;;11.20;98.00;;;;;;5055634;28;20944;-66
2023/03/14 02:22:56;;;;;;;1.20;1.10;;;11.20;98.00;;;;;;5055479;28;20973;-66
2023/03/14 02:25:35;;;;;;;1.20;1.03;;;11.10;98.00;;;;;;5055672;28;20461;-66
2023/03/14 02:28:03;;;;;;;1.33;0.90;;;11.10;98.00;;;;;;5055390;28;20519;-66
2023/03/14 02:30:32;;;;;;;1.20;0.90;;;11.00;98.00;;;;;;5037738;28;20494;-66
2023/03/14 02:33:05;;;;;;;1.20;1.10;;;11.00;98.00;;;;;;5055122;28;20554;-66
2023/03/14 02:35:40;;;;;;;1.20;1.00;;;11.00;98.00;;;;;;5055074;28;20493;-66
2023/03/14 02:38:14;;;;;;;1.20;1.00;;;11.10;98.00;;;;;;5055184;28;20500;-66
2023/03/14 02:40:42;;;;;;;1.20;1.00;;;11.00;98.00;;;;;;5054814;28;20513;-66
2023/03/14 02:43:11;;;;;;;1.10;1.00;;;11.00;98.00;;;;;;5054907;28;20511;-66
2023/03/14 02:45:45;;;;;;;1.20;1.00;;;11.00;98.00;;;;;;5054798;28;20455;-66
2023/03/14 02:48:17;;;;;;;1.30;1.00;;;11.00;98.00;;;;;;5054882;28;20814;-66
2023/03/14 02:50:46;;;;;;;1.20;1.00;;;11.00;98.00;;;;;;5037135;28;20471;-66
2023/03/14 02:53:17;;;;;;;1.40;1.00;;;11.00;98.00;;;;;;5037412;28;20465;-66
2023/03/14 02:55:47;;;;;;;1.20;1.00;;;10.90;98.00;;;;;;5054522;28;20858;-66
2023/03/14 02:58:16;;;;;;;1.37;1.00;;;10.90;98.00;;;;;;5054531;28;20460;-66
2023/03/14 03:00:43;;;;;;;1.43;1.00;;;10.90;98.00;;;;;;5054427;28;20459;-66
2023/03/14 03:03:10;;;;;;;1.20;1.00;;;10.90;98.00;;;;;;5054564;28;21058;-65
2023/03/14 03:05:37;;;;;;;1.30;1.10;;;11.00;98.00;;;;;;5054435;28;21044;-66
2023/03/14 03:08:05;;;;;;;1.20;1.00;;;11.00;98.00;;;;;;5054979;28;20465;-66
2023/03/14 03:10:33;;;;;;;1.20;0.90;;;10.90;98.00;;;;;;5054655;28;20459;-66
2023/03/14 03:13:00;;;;;;;1.43;1.00;;;10.90;98.00;;;;;;5054501;28;20455;-66
2023/03/14 03:15:36;;;;;;;1.20;1.00;;;10.90;98.00;;;;;;5054611;28;20940;-66
2023/03/14 03:18:03;;;;;;;1.20;0.90;;;10.90;98.00;;;;;;5053611;28;20464;-66
2023/03/14 03:20:30;;;;;;;1.20;0.90;;;10.90;98.00;;;;;;5054504;28;20465;-66
2023/03/14 03:22:59;;;;;;;1.17;0.90;;;10.90;98.00;;;;;;5054431;28;20849;-66
2023/03/14 03:25:27;;;;;;;1.60;1.30;;;10.90;98.00;;;;;;5037002;28;20464;-66
2023/03/14 03:27:54;;;;;;;3.70;1.00;;;10.90;98.00;;;;;;5054059;28;20461;-66
2023/03/14 03:30:29;;;;;;;1.20;1.00;;;11.00;98.00;;;;;;5054423;28;20864;-65
2023/03/14 03:32:56;;;;;;;1.20;1.00;;;11.00;98.00;;;;;;5053850;28;20456;-66
2023/03/14 03:35:23;;;;;;;1.20;1.00;;;11.00;98.00;;;;;;5053941;28;20935;-66
2023/03/14 03:37:50;;;;;;;2.07;1.20;;;10.90;98.00;;;;;;5053718;28;20464;-66
2023/03/14 03:40:17;;;;;;;1.20;1.00;;;11.00;98.00;;;;;;5053752;28;20467;-65
2023/03/14 03:42:44;;;;;;;1.20;1.10;;;11.00;98.00;;;;;;5053799;28;20869;-65
2023/03/14 03:45:11;;;;;;;1.20;0.90;;;10.90;98.00;;;;;;5035973;28;20458;-66
2023/03/14 03:47:40;;;;;;;1.20;1.00;;;10.90;98.00;;;;;;5053610;28;20465;-66
2023/03/14 03:50:08;;;;;;;1.30;1.10;;;10.80;98.00;;;;;;5035860;28;20465;-66
2023/03/14 03:52:36;;;;;;;1.20;1.00;;;10.80;98.00;;;;;;5053597;28;20465;-66
2023/03/14 03:55:03;;;;;;;1.20;1.10;;;10.80;98.00;;;;;;5053716;28;20554;-66
2023/03/14 03:57:30;;;;;;;1.20;1.00;;;10.80;98.00;;;;;;5053651;28;20494;-66
2023/03/14 03:59:57;;;;;;;1.30;1.00;;;10.90;98.00;;;;;;5053637;28;20553;-66
2023/03/14 04:02:26;;;;;;;2.03;1.10;;;10.80;98.00;;;;;;5053684;28;20487;-66
2023/03/14 04:04:54;;;;;;;1.20;1.00;;;10.80;98.00;;;;;;5053437;28;20454;-66
2023/03/14 04:07:22;;;;;;;1.60;1.10;;;10.90;98.00;;;;;;5053627;28;20520;-66
2023/03/14 04:09:49;;;;;;;1.20;1.00;;;10.80;98.00;;;;;;5053387;28;20454;-66
2023/03/14 04:12:16;;;;;;;1.20;1.00;;;10.70;98.00;;;;;;5053542;28;20454;-66
2023/03/14 04:14:43;;;;;;;1.20;1.03;;;10.70;98.00;;;;;;5053290;28;20461;-66
2023/03/14 04:17:10;;;;;;;1.27;1.00;;;10.70;98.00;;;;;;5053387;28;20501;-65
2023/03/14 04:19:37;;;;;;;1.40;1.10;;;10.70;98.00;;;;;;5053484;28;20541;-66
2023/03/14 04:22:06;;;;;;;1.30;1.00;;;10.70;98.00;;;;;;5053312;28;20459;-66
2023/03/14 04:24:33;;;;;;;1.20;1.00;;;10.70;98.00;;;;;;5053266;28;20990;-66
2023/03/14 04:27:00;;;;;;;1.40;1.10;;;10.70;98.00;;;;;;5053310;28;20921;-66
2023/03/14 04:29:27;;;;;;;1.30;0.90;;;10.70;98.00;;;;;;5052877;28;20818;-66
2023/03/14 04:31:54;;;;;;;1.30;1.00;;;10.70;98.00;;;;;;5052641;28;20465;-66
2023/03/14 04:34:21;;;;;;;1.20;1.00;;;10.70;98.00;;;;;;5052878;28;20455;-66
2023/03/14 04:36:48;;;;;;;1.20;1.00;;;10.60;98.00;;;;;;5052557;28;21160;-66
2023/03/14 04:39:17;;;;;;;1.20;0.90;;;10.70;98.00;;;;;;5052123;28;20541;-66
2023/03/14 04:41:45;;;;;;;1.30;1.00;;;10.70;98.00;;;;;;5052748;28;20458;-66
2023/03/14 04:44:13;;;;;;;1.50;1.10;;;10.70;98.00;;;;;;5052780;28;20458;-66
2023/03/14 04:46:40;;;;;;;1.20;1.00;;;10.70;98.00;;;;;;5052482;28;20459;-66
2023/03/14 04:49:08;;;;;;;1.30;1.10;;;10.70;98.00;;;;;;5052579;28;20460;-66
2023/03/14 04:51:35;;;;;;;1.23;1.00;;;10.60;98.00;;;;;;5052878;28;20464;-66
2023/03/14 04:54:03;;;;;;;1.50;1.10;;;10.70;98.00;;;;;;5052563;28;20859;-66
2023/03/14 04:56:33;;;;;;;1.30;1.10;;;10.70;98.00;;;;;;5052603;28;20479;-66
2023/03/14 04:59:00;;;;;;;1.60;1.00;;;10.70;98.00;;;;;;5051927;28;20466;-66
2023/03/14 05:01:27;;;;;;;1.47;1.10;;;10.70;98.00;;;;;;5051815;28;20455;-66
2023/03/14 05:03:54;;;;;;;1.30;1.00;;;10.70;98.00;;;;;;5051624;28;20953;-66
2023/03/14 05:06:21;;;;;;;1.80;1.20;;;10.70;98.00;;;;;;5051930;28;20461;-66
2023/03/14 05:08:48;;;;;;;1.60;1.40;;;10.70;98.00;;;;;;5052218;28;21121;-66
2023/03/14 05:11:15;;;;;;;1.60;1.07;;;10.70;98.00;;;;;;5052495;28;20454;-66
2023/03/14 05:13:43;;;;;;;1.83;1.10;;;10.80;98.00;;;;;;5052012;28;20513;-66
2023/03/14 05:16:12;;;;;;;1.30;1.13;;;10.80;98.00;;;;;;5052428;28;20798;-66
2023/03/14 05:18:39;;;;;;;3.20;1.20;;;10.90;98.00;;;;;;5052342;28;20590;-66
2023/03/14 05:21:06;;;;;;;1.37;1.17;;;10.80;98.00;;;;;;5052574;28;20468;-66
2023/03/14 05:23:34;;;;;;;1.40;1.10;;;10.80;98.00;;;;;;5051787;28;20461;-65
2023/03/14 05:26:02;;;;;;;1.97;1.20;;;10.80;98.00;;;;;;5052094;28;20515;-66
2023/03/14 05:28:29;;;;;;;1.20;0.90;;;10.80;98.00;;;;;;5052051;28;20457;-66
2023/03/14 05:31:07;;;;;;;1.30;1.07;;;10.80;98.00;;;;;;5051732;28;20554;-66
2023/03/14 05:33:35;;;;;;;2.67;1.10;;;10.80;98.00;;;;;;5051961;28;20501;-66
2023/03/14 05:36:02;;;;;;;1.40;1.10;;;10.80;98.00;;;;;;5051689;28;20821;-66
2023/03/14 05:38:29;;;;;;;1.20;1.03;;;10.90;98.00;;;;;;5051590;28;20967;-66
2023/03/14 05:40:56;;;;;;;1.33;1.07;;;10.70;98.00;;;;;;5051194;28;20458;-66
2023/03/14 05:43:23;;;;;;;1.20;1.00;;;10.60;98.00;;;;;;5051851;28;20968;-66
2023/03/14 05:45:50;;;;;;;2.73;1.20;;;10.60;98.00;;;;;;5052063;28;20453;-66
2023/03/14 05:48:19;;;;;;;4.07;1.67;;;10.60;98.00;;;;;;5051732;28;20811;-66
2023/03/14 05:50:46;;;;;;;1.20;1.10;;;10.60;98.00;;;;;;5051448;28;20540;-66
2023/03/14 05:53:13;;;;;;;1.20;0.90;;;10.70;98.00;;;;;;5051282;28;20452;-66
2023/03/14 05:55:40;;;;;;;1.30;1.00;;;10.60;98.00;;;;;;5051512;28;20461;-66
2023/03/14 05:58:07;;;;;;;1.53;1.10;;;10.70;98.00;;;;;;5051547;28;21104;-65
2023/03/14 06:00:34;;;;;;;1.30;1.00;;;10.60;98.00;;;;;;5051695;28;20483;-65
2023/03/14 06:03:02;;;;;;;1.20;1.10;;;10.60;98.00;;;;;;5051781;28;20533;-66
2023/03/14 06:05:30;;;;;;;1.20;1.00;;;10.60;98.00;;;;;;5051429;28;20465;-65
2023/03/14 06:07:58;;;;;;;1.77;1.60;;;10.60;98.00;;;;;;5051432;28;20507;-66
2023/03/14 06:10:25;;;;;;;1.20;0.90;;;10.60;98.00;;;;;;5017818;28;20457;-66
2023/03/14 06:12:52;;;;;;;1.37;1.00;;;10.70;98.00;;;;;;5051424;28;20504;-65
2023/03/14 06:15:19;;;;;;;1.20;1.03;;;10.70;98.00;;;;;;5051746;28;20464;-66
2023/03/14 06:17:46;;;;;;;1.40;1.23;;;10.70;98.00;;;;;;5051668;28;20485;-65
2023/03/14 06:20:14;;;;;;;1.30;1.00;;;10.80;98.00;;;;;;5051754;28;20449;-66
2023/03/14 06:22:43;;;;;;;1.30;1.10;;;10.70;98.00;;;;;;5051899;28;20938;-66
2023/03/14 06:25:10;;;;;;;1.20;1.07;;;10.80;98.00;;;;;;5051465;28;20991;-65
2023/03/14 06:27:38;;;;;;;1.50;1.10;;;10.80;98.00;;;;;;5051885;28;20479;-65
2023/03/14 06:30:07;;;;;;;2.23;1.23;;;10.70;98.00;;;;;;5051304;28;20461;-66
2023/03/14 06:32:35;;;;;;;1.40;1.10;;;10.60;98.00;;;;;;5051435;28;20538;-65
2023/03/14 06:35:03;;;;;;;1.20;1.00;;;10.70;98.00;;;;;;5051442;28;20853;-65
2023/03/14 06:37:30;;;;;;;1.50;1.17;;;10.60;98.00;;;;;;5051461;28;20487;-65
2023/03/14 06:39:59;;;;;;;1.20;1.10;;;10.60;98.00;;;;;;5051443;28;20470;-66
2023/03/14 06:42:26;;;;;;;1.27;1.00;;;10.50;98.00;;;;;;5051388;28;20813;-65
2023/03/14 06:44:53;;;;;;;1.37;1.20;;;10.60;98.00;;;;;;5051212;28;20822;-66
2023/03/14 06:47:20;;;;;;;1.50;1.13;;;10.60;98.00;;;;;;5033584;28;20457;-66
2023/03/14 06:49:47;;;;;;;1.20;1.10;;;10.70;98.00;;;;;;5033089;28;20450;-66
2023/03/14 06:52:14;;;;;;;1.30;1.10;;;10.70;98.00;;;;;;5051232;28;20465;-66
2023/03/14 06:54:41;;;;;;;1.50;1.23;;;10.60;98.00;;;;;;5054538;28;20464;-65
2023/03/14 06:57:10;;;;;;;1.90;1.17;;;10.60;98.00;;;;;;5054970;28;20493;-66
2023/03/14 06:59:37;;;;;;;1.40;1.20;;;10.60;98.00;;;;;;5054864;28;20511;-66
2023/03/14 07:02:04;;;;;;;1.30;1.00;;;10.70;98.00;;;;;;5054822;28;20511;-61
2023/03/14 07:04:32;;;;;;;1.20;0.90;;;10.70;98.00;;;;;;5054830;28;20460;-61
2023/03/14 07:06:59;;;;;;;5.23;1.23;;;10.70;98.00;;;;;;5036918;28;20473;-61
2023/03/14 07:09:28;;;;;;;1.37;1.00;;;10.70;98.00;;;;;;5054887;28;20515;-61
2023/03/14 07:11:55;;;;;;;4.00;1.33;;;10.70;98.00;;;;;;5054724;28;20462;-61
2023/03/14 07:14:24;;;;;;;2.07;1.10;;;10.70;98.00;;;;;;5054599;28;20470;-61
2023/03/14 07:16:51;;;;;;;1.40;1.17;;;10.70;98.00;;;;;;5054634;28;20526;-61
2023/03/14 07:19:18;;;;;;;1.20;1.10;;;10.80;98.00;;;;;;5054809;28;20454;-61
2023/03/14 07:21:45;;;;;;;2.33;1.10;;;10.90;98.00;;;;;;5054800;28;20813;-61
2023/03/14 07:24:13;;;;;;;1.73;1.00;;;10.90;98.00;;;;;;5054437;28;20465;-60
2023/03/14 07:26:40;;;;;;;1.20;1.10;;;11.00;98.00;;;;;;5054533;28;20897;-61
2023/03/14 07:29:07;;;;;;;2.80;1.40;;;10.90;98.00;;;;;;5054346;28;20947;-61
2023/03/14 07:31:36;;;;;;;1.20;0.90;;;10.90;98.00;;;;;;5054478;28;20950;-60
2023/03/14 07:34:03;;;;;;;9.60;1.30;;;11.00;98.00;;;;;;5053974;28;20815;-60
2023/03/14 07:36:30;;;;;;;1.20;1.00;;;11.00;98.00;;;;;;5054288;28;20685;-61
2023/03/14 07:38:57;;;;;;;1.20;1.00;;;11.10;98.00;;;;;;5053719;28;20551;-61
2023/03/14 07:41:24;;;;;;;1.80;1.20;;;11.10;98.00;;;;;;5054244;28;20466;-60
2023/03/14 07:43:54;;;;;;;2.33;1.20;;;11.20;98.00;;;;;;5053989;28;20469;-61
2023/03/14 07:46:21;;;;;;;1.20;1.00;;;11.20;98.00;;;;;;5053489;28;21208;-61
2023/03/14 07:48:49;;;;;;;1.20;1.00;;;11.30;98.00;;;;;;5053793;28;20454;-60
2023/03/14 07:51:16;;;;;;;1.40;1.10;;;11.30;98.00;;;;;;5054015;28;20455;-61
2023/03/14 07:53:44;;;;;;;1.30;1.10;;;11.40;98.00;;;;;;5054074;28;21014;-61
2023/03/14 07:56:11;;;;;;;1.20;0.90;;;11.40;98.00;;;;;;5053802;28;20488;-61
2023/03/14 07:58:40;;;;;;;1.23;1.00;;;11.40;98.00;;;;;;5053710;28;21013;-61
2023/03/14 08:01:07;;;;;;;1.30;1.20;;;11.50;98.00;;;;;;5053762;28;20475;-60
2023/03/14 08:03:34;;;;;;;1.20;0.90;;;11.50;98.00;;;;;;5053404;28;20454;-61
2023/03/14 08:06:03;;;;;;;1.83;1.10;;;11.50;98.00;;;;;;5053882;28;20572;-60
2023/03/14 08:08:31;;;;;;;6.80;1.50;;;11.50;98.00;;;;;;5053865;28;20469;-61
2023/03/14 08:11:04;;;;;;;1.40;1.20;;;11.50;98.00;;;;;;5053516;28;20465;-61
2023/03/14 08:13:31;;;;;;;1.20;1.00;;;11.70;98.00;;;;;;5053648;28;20596;-60
2023/03/14 08:15:58;;;;;;;1.20;1.00;;;11.80;98.00;;;;;;5047485;28;20457;-61
2023/03/14 08:18:26;;;;;;;1.20;1.10;;;12.00;98.00;;;;;;5053316;28;20527;-61
2023/03/14 08:20:53;;;;;;;1.20;1.00;;;12.10;98.00;;;;;;5053368;28;20468;-61
2023/03/14 08:23:22;;;;;;;1.20;1.00;;;12.20;98.00;;;;;;5053314;28;20865;-60
2023/03/14 08:25:50;;;;;;;1.20;0.90;;;12.30;98.00;;;;;;5053275;28;20873;-61
2023/03/14 08:28:17;;;;;;;3.20;1.20;;;12.30;98.00;;;;;;5053124;28;20548;-61
2023/03/14 08:30:45;;;;;;;1.30;1.00;;;12.50;98.00;;;;;;5052458;28;21165;-61
2023/03/14 08:33:12;;;;;;;1.20;1.00;;;12.50;98.00;;;;;;5052852;28;20472;-61
2023/03/14 08:35:39;;;;;;;1.50;1.20;;;12.50;98.00;;;;;;5052973;28;20495;-63
2023/03/14 08:38:06;;;;;;;1.20;1.00;;;12.60;98.00;;;;;;5052780;28;20521;-61
2023/03/14 08:40:35;;;;;;;1.40;1.10;;;12.80;98.00;;;;;;5035333;28;20515;-61
2023/03/14 08:43:21;;;;;;;1.20;1.07;;;12.90;98.00;;;;;;5044722;28;20479;-61
2023/03/14 08:45:48;;;;;;;1.60;1.20;;;12.90;98.00;;;;;;5220975;22;20506;-61
2023/03/14 08:48:15;;;;;;;1.57;1.13;;;12.90;98.00;;;;;;5023356;28;20545;-61
2023/03/14 08:50:43;;;;;;;1.30;1.00;;;13.00;98.00;;;;;;5011656;28;20527;-61
2023/03/14 08:53:11;;;;;;;1.30;1.00;;;13.20;98.00;;;;;;5012619;28;20499;-61
2023/03/14 08:55:39;;;;;;;6.20;1.33;;;13.40;98.00;;;;;;5012658;28;20454;-61
2023/03/14 08:58:06;;;;;;;1.30;1.10;;;13.60;98.00;;;;;;5012817;28;20485;-61
2023/03/14 09:00:34;;;;;;;1.20;1.00;;;13.60;98.00;;;;;;5033749;28;20457;-61
2023/03/14 09:03:01;;;;;;;1.20;1.00;;;13.50;98.00;;;;;;5046310;28;20473;-62
2023/03/14 09:05:28;;;;;;;1.20;1.00;;;13.50;98.00;;;;;;5044149;28;20457;-61
2023/03/14 09:07:58;;;;;;;1.20;1.10;;;13.40;98.00;;;;;;5043557;28;20453;-61
2023/03/14 09:10:31;;;;;;;1.47;1.10;;;13.30;98.00;;;;;;5033070;28;20466;-61
2023/03/14 09:13:00;;;;;;;1.27;1.00;;;13.20;98.00;;;;;;5032651;28;20482;-61
2023/03/14 09:15:27;;;;;;;1.20;1.00;;;13.30;98.00;;;;;;5225025;23;21008;-64
2023/03/14 09:17:56;;;;;;;1.30;1.10;;;13.40;98.00;;;;;;5032111;28;20494;-64
2023/03/14 09:20:23;;;;;;;1.83;1.10;;;13.60;98.00;;;;;;5032380;28;20559;-65
2023/03/14 09:22:50;;;;;;;1.20;1.00;;;13.80;98.00;;;;;;5032303;28;20448;-65
2023/03/14 09:25:18;;;;;;;1.20;1.10;;;13.80;98.00;;;;;;5032098;28;20504;-64
2023/03/14 09:27:45;;;;;;;1.20;1.00;;;13.70;98.00;;;;;;5031934;28;20505;-63
2023/03/14 09:30:15;;;;;;;1.60;1.20;;;13.60;98.00;;;;;;5031994;28;20474;-64
2023/03/14 09:32:42;;;;;;;1.20;1.00;;;13.50;98.00;;;;;;5014120;28;20482;-65
2023/03/14 09:35:10;;;;;;;1.40;1.00;;;13.50;98.00;;;;;;5031908;28;20459;-64
2023/03/14 09:37:37;;;;;;;1.30;1.03;;;13.60;98.00;;;;;;5031972;28;20487;-64
2023/03/14 09:40:10;;;;;;;1.20;0.90;;;13.40;98.00;;;;;;5031761;28;20464;-65
2023/03/14 09:42:38;;;;;;;1.20;1.00;;;13.30;98.00;;;;;;5031934;28;20504;-65
2023/03/14 09:45:11;;;;;;;1.20;1.00;;;13.30;98.00;;;;;;5031891;28;20459;-65
2023/03/14 09:47:41;;;;;;;1.40;1.10;;;13.40;98.00;;;;;;5031998;28;20471;-67
2023/03/14 09:50:14;;;;;;;1.30;1.10;;;13.40;98.00;;;;;;5014284;28;20463;-65
2023/03/14 09:52:49;;;;;;;1.30;1.10;;;13.40;98.00;;;;;;5031898;28;20494;-64
2023/03/14 09:55:19;;;;;;;1.20;1.00;;;13.40;98.00;;;;;;5032014;28;20456;-65
2023/03/14 09:57:48;;;;;;;1.20;1.10;;;13.50;98.00;;;;;;5031748;28;20479;-65
2023/03/14 10:00:18;;;;;;;1.20;0.90;;;13.50;98.00;;;;;;5031894;28;20452;-65
2023/03/14 10:02:53;;;;;;;1.20;0.93;;;13.50;98.00;;;;;;5031882;28;20854;-65
2023/03/14 10:05:23;;;;;;;1.93;1.10;;;13.60;98.00;;;;;;5031898;28;20509;-67
2023/03/14 10:07:51;;;;;;;1.30;1.10;;;13.70;98.00;;;;;;5031924;28;20462;-65
2023/03/14 10:10:20;;;;;;;1.70;1.03;;;13.60;98.00;;;;;;5032014;28;20462;-65
2023/03/14 10:12:55;;;;;;;1.20;1.00;;;13.80;98.00;;;;;;5031872;28;20840;-65
2023/03/14 10:15:27;;;;;;;1.40;1.00;;;14.00;98.00;;;;;;5031471;28;20468;-66
2023/03/14 10:17:56;;;;;;;1.20;1.00;;;14.10;98.00;;;;;;5031463;28;20492;-66
2023/03/14 10:20:33;;;;;;;1.20;1.00;;;14.10;98.00;;;;;;5033564;28;20461;-65
2023/03/14 10:23:01;;;;;;;3.20;1.10;;;14.00;98.00;;;;;;5051434;28;20525;-64
2023/03/14 10:25:30;;;;;;;1.57;1.07;;;14.00;98.00;;;;;;5051431;28;20458;-64
2023/03/14 10:27:58;;;;;;;3.87;1.30;;;14.30;98.00;;;;;;5053590;28;20467;-66
2023/03/14 10:30:33;;;;;;;1.30;1.00;;;14.50;98.00;;;;;;5055159;28;20456;-66
2023/03/14 10:33:09;;;;;;;1.20;1.00;;;14.90;98.00;;;;;;5055106;28;20464;-66
2023/03/14 10:35:38;;;;;;;1.30;1.00;;;15.30;98.00;;;;;;5055100;28;20492;-65
2023/03/14 10:38:06;;;;;;;1.37;1.00;;;15.50;98.00;;;;;;5055079;28;20484;-65
2023/03/14 10:40:38;;;;;;;1.40;1.10;;;15.80;98.00;;;;;;5050160;28;20465;-65
2023/03/14 10:43:07;;;;;;;1.20;1.00;;;15.80;98.00;;;;;;5047410;28;20942;-65
2023/03/14 10:45:39;;;;;;;1.77;1.10;;;15.80;98.00;;;;;;5055118;28;20839;-65
2023/03/14 10:48:25;;;;;;;1.30;1.10;;;15.90;98.00;;;;;;5055062;28;20461;-65
2023/03/14 10:50:58;;;;;;;1.77;1.23;;;16.30;98.00;;;;;;5055015;28;20809;-65
2023/03/14 10:53:26;;;;;;;1.20;1.00;;;16.30;98.00;;;;;;5054688;28;20515;-66
2023/03/14 10:55:53;;;;;;;1.20;1.00;;;15.70;98.00;;;;;;5054774;28;20449;-65
2023/03/14 10:58:25;;;;;;;1.50;1.10;;;15.50;98.00;;;;;;5054632;28;20480;-65
2023/03/14 11:01:08;;;;;;;1.20;1.00;;;15.30;98.00;;;;;;5054772;28;20457;-65
2023/03/14 11:03:38;;;;;;;1.20;1.00;;;15.10;98.00;;;;;;5050854;28;20461;-66
2023/03/14 11:06:12;;;;;;;1.23;1.10;;;14.70;98.00;;;;;;5035023;28;20453;-66
2023/03/14 11:08:50;;;;;;;1.20;1.10;;;14.50;98.00;;;;;;5033224;28;20453;-66
2023/03/14 11:11:23;;;;;;;1.60;1.00;;;14.50;98.00;;;;;;5034317;28;20869;-66
2023/03/14 11:14:02;;;;;;;1.30;1.10;;;14.40;98.00;;;;;;5034088;28;20465;-65
2023/03/14 11:16:39;;;;;;;1.63;1.23;;;14.20;98.00;;;;;;5033001;28;20474;-66
2023/03/14 11:19:45;;;;;;;1.20;1.10;;;14.10;98.00;;;;;;5034490;28;20489;-66
2023/03/14 11:22:29;;;;;;;1.20;1.00;;;13.80;98.00;;;;;;5025415;28;20541;-66
2023/03/14 11:25:19;;;;;;;1.57;1.10;;;13.50;98.00;;;;;;5052102;28;20456;-66
2023/03/14 11:27:53;;;;;;;1.30;0.90;;;13.40;98.00;;;;;;5054251;28;20463;-66
2023/03/14 11:30:27;;;;;;;1.30;1.13;;;13.40;98.00;;;;;;5054371;28;20453;-65
2023/03/14 11:33:01;;;;;;;1.20;1.00;;;13.20;98.00;;;;;;5054177;28;20470;-66
2023/03/14 11:35:31;;;;;;;1.30;1.10;;;13.20;98.00;;;;;;5054121;28;20457;-66
2023/03/14 11:38:20;;;;;;;1.20;1.00;;;13.10;98.00;;;;;;5053967;28;20459;-64
2023/03/14 11:40:49;;;;;;;1.30;1.10;;;12.90;98.00;;;;;;5053883;28;20516;-65
2023/03/14 11:43:21;;;;;;;1.20;0.90;;;12.90;98.00;;;;;;5053892;28;20459;-65
2023/03/14 11:45:51;;;;;;;1.20;1.00;;;12.90;98.00;;;;;;5053776;28;20456;-65
2023/03/14 11:48:26;;;;;;;1.20;1.00;;;12.90;98.00;;;;;;5053891;28;20528;-66
2023/03/14 11:50:59;;;;;;;1.30;1.10;;;12.70;98.00;;;;;;5053892;28;20476;-66
2023/03/14 11:53:40;;;;;;;1.20;0.90;;;12.50;98.00;;;;;;5036360;28;20526;-65
2023/03/14 11:56:16;;;;;;;1.20;1.00;;;12.30;98.00;;;;;;5053812;28;20964;-65
2023/03/14 11:58:52;;;;;;;1.20;1.00;;;12.20;98.00;;;;;;5053520;28;20481;-64
2023/03/14 12:01:26;;;;;;;1.20;1.00;;;12.20;98.00;;;;;;5053676;28;20457;-64
2023/03/14 12:04:01;;;;;;;1.20;1.00;;;12.20;98.00;;;;;;5053826;28;20461;-65
2023/03/14 12:06:35;;;;;;;1.70;1.00;;;12.00;98.00;;;;;;5053844;28;20463;-67
2023/03/14 12:09:07;;;;;;;1.20;1.00;;;12.10;98.00;;;;;;5053388;28;20462;-65
2023/03/14 12:11:40;;;;;;;1.20;1.00;;;12.00;98.00;;;;;;5053102;28;20968;-65
2023/03/14 12:14:24;;;;;;;1.20;0.93;;;11.90;98.00;;;;;;5035244;28;20466;-65
2023/03/14 12:16:57;;;;;;;1.40;1.20;;;11.90;98.00;;;;;;5052990;28;20459;-65
2023/03/14 12:19:39;;;;;;;1.20;1.00;;;11.80;98.00;;;;;;5052579;28;20528;-66
2023/03/14 12:22:32;;;;;;;1.20;1.00;;;11.80;98.00;;;;;;5052772;28;20465;-64
2023/03/14 12:25:05;;;;;;;1.20;1.00;;;11.90;98.00;;;;;;5052222;28;20465;-65
2023/03/14 12:28:01;;;;;;;1.37;1.00;;;11.80;98.00;;;;;;5052764;28;20465;-65
2023/03/14 12:30:30;;;;;;;1.20;1.00;;;11.80;98.00;;;;;;5052212;28;20462;-65
2023/03/14 12:33:27;;;;;;;1.63;1.00;;;11.80;98.00;;;;;;5052255;28;20464;-65
2023/03/14 12:36:00;;;;;;;1.20;1.00;;;11.80;98.00;;;;;;5052242;28;20469;-66
2023/03/14 12:38:38;;;;;;;1.20;0.90;;;11.90;98.00;;;;;;5052486;28;20986;-64
2023/03/14 12:41:16;;;;;;;1.17;1.00;;;11.80;98.00;;;;;;5052351;28;20461;-65
2023/03/14 12:43:43;;;;;;;1.20;0.90;;;11.70;98.00;;;;;;5052178;28;20525;-66
2023/03/14 12:46:24;;;;;;;1.20;1.00;;;11.80;98.00;;;;;;5034986;28;20468;-65
2023/03/14 12:48:55;;;;;;;1.30;1.00;;;11.80;98.00;;;;;;5052307;28;20463;-65
2023/03/14 12:51:29;;;;;;;1.17;0.90;;;11.90;98.00;;;;;;5051234;28;20465;-65
2023/03/14 12:54:16;;;;;;;1.20;1.00;;;12.10;98.00;;;;;;5052137;28;20460;-65
2023/03/14 12:57:05;;;;;;;1.17;0.90;;;12.20;98.00;;;;;;5051889;28;20455;-65
2023/03/14 12:59:37;;;;;;;1.53;1.03;;;12.10;98.00;;;;;;5051986;28;20563;-65
2023/03/14 13:02:21;;;;;;;1.20;1.00;;;12.30;98.00;;;;;;5052278;28;20456;-66